Flight Track Log - Related Links

Times and Time Zones

All times are in EDT time to prevent confusion due to time zone crossing. See the ASQ4633 flight status page for this flight to view local times or setup timezone preferences in your user account.

Time Position Orientation Groundspeed Altitude Reporting Facility
EDT Latitude Longitude Course Direction KTS MPH feet Rate Location/Type
Mon 03:56:13 PM 40.6333 -74.2167 40° Northeast 194 223 3,100  Level New TRACON
Mon 03:57:13 PM 40.6833 -74.2333 346° North 255 293 5,600 2,500 Climbing New TRACON
Mon 03:58:13 PM 40.7333 -74.1667 45° Northeast 257 296 8,100 2,150 Climbing New TRACON
Mon 03:59:13 PM 40.7500 -74.0833 75° East 279 321 9,900 1,000 Climbing New TRACON
Mon 04:00:13 PM 40.8000 -73.9667 60° Northeast 345 397 10,100 150 Climbing New TRACON
Mon 04:01:00 PM 41.0752 -73.7321 40° Northeast  Level FlightAware
Mon 04:01:13 PM 40.8667 -73.8667 49° Northeast 369 425 10,200  Level New TRACON
Mon 04:02:13 PM 40.9500 -73.7833 37° Northeast 367 422 12,000 1,800 Climbing New TRACON
Mon 04:03:13 PM 41.0333 -73.7167 31° Northeast 358 412 13,800 1,650 Climbing New TRACON
Mon 04:04:13 PM 41.1167 -73.6333 37° Northeast 366 421 15,300 1,231 Climbing New TRACON
Mon 04:05:49 PM 41.2428 -73.5250 33° Northeast 395 455 17,000 654 Climbing Boston Center
Mon 04:06:49 PM 41.3394 -73.4408 33° Northeast 379 436 17,000 450 Level Boston Center
Mon 04:07:49 PM 41.4192 -73.3703 34° Northeast 379 436 17,900 1,000 Climbing Boston Center
Mon 04:08:49 PM 41.5053 -73.2828 37° Northeast 379 436 19,000 1,050 Climbing Boston Center
Mon 04:09:49 PM 41.5811 -73.1783 46° Northeast 384 442 20,000 1,050 Climbing Boston Center
Mon 04:10:49 PM 41.6794 -73.1183 24° Northeast 384 442 21,100 1,050 Climbing Boston Center
Mon 04:11:49 PM 41.7939 -73.1361 353° North 379 436 22,100 1,000 Climbing Boston Center
Mon 04:12:49 PM 41.9042 -73.1542 353° North 379 436 23,100 1,000 Climbing Boston Center
Mon 04:13:49 PM 42.0144 -73.1750 352° North 391 450 24,100 950 Climbing Boston Center
Mon 04:14:49 PM 42.1269 -73.1847 356° North 397 457 25,000 450 Climbing Boston Center
Mon 04:15:49 PM 42.2458 -73.1833 360° North 408 470 25,000  Level Boston Center
Mon 04:16:49 PM 42.3689 -73.1764 North 423 487 25,000  Level Boston Center
Mon 04:17:49 PM 42.4919 -73.1694 North 429 494 25,000  Level Boston Center
Mon 04:18:49 PM 42.6314 -73.1822 356° North 441 507 25,000  Level Boston Center
Mon 04:19:49 PM 42.7544 -73.1836 360° North 441 507 25,000  Level Boston Center
Mon 04:20:49 PM 42.8753 -73.1853 359° North 441 507 25,000  Level Boston Center
Mon 04:21:49 PM 42.9961 -73.1839 360° North 436 502 25,000  Level Boston Center
Mon 04:23:01 PM 43.1378 -73.1828 360° North 430 495 25,000  Level Boston Center
Mon 04:24:01 PM 43.2567 -73.1842 360° North 425 489 25,000 -650 Level Boston Center
Mon 04:25:01 PM 43.3775 -73.1828 360° North 425 489 23,700 -2,000 Descending Boston Center
Mon 04:26:01 PM 43.4839 -73.1811 North 419 482 21,000 -2,900 Descending Boston Center
Mon 04:27:01 PM 43.5983 -73.1797 North 419 482 17,900 -2,950 Descending Boston Center
Mon 04:28:01 PM 43.7089 -73.1839 358° North 406 467 15,100 -2,650 Descending Boston Center
Mon 04:29:01 PM 43.8150 -73.1825 North 384 442 12,600 -2,050 Descending Boston Center
Mon 04:30:01 PM 43.9192 -73.1836 360° North 378 435 11,000 -800 Descending Boston Center
Mon 04:31:01 PM 44.0236 -73.1822 North 372 428 11,000 -50 Level Boston Center
Mon 04:32:01 PM 44.1233 -73.1950 355° North 372 428 10,900 -650 Descending Boston Center
Mon 04:33:01 PM 44.2003 -73.2392 338° Northwest 315 362 9,700 -1,700 Descending Boston Center
Mon 04:34:01 PM 44.2811 -73.2839 338° Northwest 292 336 7,500 -1,450 Descending Boston Center
Mon 04:35:01 PM 44.3539 -73.3256 338° Northwest 281 323 6,800 -750 Descending Boston Center
Mon 04:36:01 PM 44.4181 -73.3644 337° Northwest 263 303 6,000 -800 Descending Boston Center
Mon 04:37:01 PM 44.4742 -73.3972 337° Northwest 252 290 5,200 -1,000 Descending Boston Center
Mon 04:38:01 PM 44.5406 -73.4069 354° North 219 252 4,000 -1,100 Descending Boston Center
Mon 04:39:01 PM 44.5517 -73.3314 78° East 144 166 3,000 -900 Descending Boston Center
Mon 04:40:01 PM 44.5397 -73.2642 104° East 148 170 2,200 -800 Descending Boston Center
Mon 04:41:01 PM 44.5150 -73.2231 130° Southeast 148 170 1,400 -700 Descending Boston Center
Mon 04:42:01 PM 44.4922 -73.1850 130° Southeast 131 151 800 -600 Descending Boston Center

Login

Don't have an account? Register now (free) for customized features, flight alerts, and more!